AirNav   Pilot Hours Calculator
 
 870 users online  

05FD Aventura Heliport
North Miami Beach, Florida, USA

GOING TO NORTH MIAMI BEACH?


FAA INFORMATION EFFECTIVE 07 NOVEMBER 2019

Location

FAA Identifier: 05FD
Lat/Long: 25-57-39.3310N 080-08-21.1630W
25-57.655517N 080-08.352717W
25.9609253,-80.1392119
(estimated)
Elevation: 6 ft. / 2 m (estimated)
Variation: 03W (1985)
From city: 3 miles N of NORTH MIAMI BEACH, FL
Time zone: UTC -5 (UTC -4 during Daylight Saving Time)
Zip code: 33180

Heliport Operations

Heliport use: Private use. Permission required prior to landing
Activation date: 06/1991
Control tower: no
ARTCC: MIAMI CENTER
FSS: MIAMI FLIGHT SERVICE STATION
Attendance: 0800-1600
Segmented circle: no
Lights: FOR POLE & LANDSCAPE LIGHTING CALL 305-933-6911.
Landing fee: yes

Heliport Communications

WX ASOS at HWO (6 nm NW): PHONE 954-983-5904
WX ASOS at FLL (7 nm N): PHONE 954-359-7857
WX ASOS at OPF (8 nm SW): 125.9 (305-681-4063)
WX ASOS at MIA (13 nm SW): PHONE 305-870-0235
WX ASOS at FXE (14 nm N): PHONE 954-772-2537
WX ASOS at PMP (17 nm N): PHONE 954-783-3720

Nearby radio navigation aids

VOR radial/distance  VOR name  Freq  Var
FLLr174/6.9FORT LAUDERDALE VOR/DME114.4006W
VKZr008/12.6VIRGINIA KEY VOR/DME117.1004W
DHPr054/14.9DOLPHIN VORTAC113.9004W

Heliport Services

Runway Information

Helipad H1

Dimensions: 95 x 95 ft. / 29 x 29 m
Surface: turf
Runway edge lights: non-standard
POLE AND LANDSCAPE LIGHTING.
Traffic pattern: leftleft

Heliport Ownership and Management from official FAA records

Ownership: Privately-owned
Owner: DON SOFFER
19495 BISCAYNE BLVD SUITE 900
NORTH MIAMI BEACH, FL 33180
Phone 305-937-6200
Manager: TURNBERRY ISLE RESORT
19999 W. COUNTRY CLUB DRIVE
AVENTURA, FL 33180
Phone 305-932-6200

Additional Remarks

FOR CD CTC MIAMI APCH AT 305-869-5432.

Instrument Procedures

There are no published instrument procedures at 05FD.

Some nearby airports with instrument procedures:

KHWO - North Perry Airport (6 nm NW)
KFLL - Fort Lauderdale/Hollywood International Airport (7 nm N)
KOPF - Miami-Opa Locka Executive Airport (8 nm SW)
KMIA - Miami International Airport (13 nm SW)
KFXE - Fort Lauderdale Executive Airport (14 nm N)
KPMP - Pompano Beach Airpark (17 nm N)
 
Loc | Ops | Rwys | IFR | FBO | Links
Com | Nav | Svcs | Stats | Notes


 
Area around 05FD (Aventura Heliport)
 
Road maps at: MapQuest Bing Google
 
Aerial photo
No photo
 
Sectional chart

 
Airport distance calculator
Flying to Aventura Heliport? Find the distance to fly.

From to 05FD

Sunrise and sunset
Times for 20-Nov-2019
 Local
(UTC-5)
 Zulu
(UTC)
Morning civil twilight06:1911:19
Sunrise06:4311:43
Sunset17:2922:29
Evening civil twilight17:5422:54

Current date and time
Zulu (UTC)  20-Nov-2019 12:09:40
Local (UTC-5)  20-Nov-2019 07:09:40
 
METAR
KHWO 
6nm NW 
201153Z 33005KT 10SM CLR 13/11 A3010 RMK AO2 SLP193 T01330106 10167 20133 53016
KFLL 
6nm N 
201155Z 32005KT 10SM FEW250 14/11 A3009 RMK AO2 T01390106 $
KOPF 
8nm W 
201153Z 33007KT 10SM CLR 14/12 A3009 RMK AO2 SLP191 T01440122 10172 20144 53015
KMIA 
14nm SW 
201153Z 34005KT 10SM CLR 17/11 A3009 RMK AO2 SLP188 T01670106 10189 20161 53015
KFXE 
15nm N 
201153Z 32005KT 10SM CLR 13/09 A3009 RMK AO2 SLP190 T01330089 10161 20122 53016 $
KPMP 
17nm N 
201153Z 32008KT 10SM FEW250 14/08 A3008 RMK AO2 SLP188 T01390078 10161 20133 53015
TAF
KFLL 
6nm N 
201136Z 2012/2118 33005KT P6SM FEW040 FM201400 35010KT P6SM SKC FM210200 01006KT P6SM FEW040 FM211400 06010KT P6SM SCT035 BKN100
KOPF 
8nm W 
201136Z 2012/2112 33006KT P6SM FEW040 FM201400 35009KT P6SM SKC FM210200 VRB04KT P6SM FEW030
KMIA 
14nm SW 
201136Z 2012/2118 33005KT P6SM FEW030 FM201400 35009KT P6SM SKC FM210200 VRB04KT P6SM FEW030 FM211400 06008KT P6SM SCT035 BKN100
KFXE 
15nm N 
201136Z 2012/2112 VRB04KT P6SM FEW040 FM201400 35008KT P6SM SKC FM210200 VRB04KT P6SM FEW040
NOTAMs
Click for the latest NOTAMs
NOTAMs are issued by the DoD/FAA and will open in a separate window not controlled by AirNav.

 

 
 

Would you like to see your business listed on this page?

 If your business provides an interesting product or service to pilots, flight crews, aircraft, or users of the Aventura Heliport, you should consider listing it here.  To start the listing process, click on the button below
 
Add a business
 

Other Pages about Aventura Heliport

Update a link
 
Copyright © AirNav, LLC. All rights reserved. Privacy Policy  Contact